Time;durP1;ratioP1;P1;durP2;ratioP2;P2;SDS_P1;SDS_P2;PMS_P1;PMS_P2;Temp;Humidity;BMP_temperature;BMP_pressure;BME280_temperature;BME280_humidity;BME280_pressure;Samples;Min_cycle;Max_cycle;Signal;HPM_P1;HPM_P2
2023/05/11 00:00:15;;;;;;;;;;;13.70;99.90;;;;;;5110539;27;19943;-78
2023/05/11 00:02:40;;;;;;;;;;;13.50;99.90;;;;;;5110946;27;19966;-76
2023/05/11 00:05:06;;;;;;;;;;;13.40;99.90;;;;;;5114230;27;20014;-78
2023/05/11 00:07:31;;;;;;;;;;;13.60;99.90;;;;;;5108935;27;19931;-78
2023/05/11 00:09:57;;;;;;;;;;;13.60;99.90;;;;;;5113986;27;19931;-78
2023/05/11 00:12:22;;;;;;;;;;;13.40;99.90;;;;;;5107527;27;19927;-78
2023/05/11 00:14:48;;;;;;;;;;;13.20;99.90;;;;;;5105512;27;19927;-78
2023/05/11 00:17:14;;;;;;;;;;;13.40;99.90;;;;;;5106934;27;19934;-78
2023/05/11 00:19:39;;;;;;;;;;;13.40;99.90;;;;;;5111435;27;19934;-78
2023/05/11 00:22:05;;;;;;;;;;;13.30;99.90;;;;;;5109061;27;19934;-78
2023/05/11 00:24:30;;;;;;;;;;;13.30;99.90;;;;;;5110424;27;19963;-78
2023/05/11 00:26:56;;;;;;;;;;;13.30;99.90;;;;;;5093884;27;19967;-77
2023/05/11 00:29:21;;;;;;;;;;;13.40;99.90;;;;;;5109593;27;19969;-78
2023/05/11 00:31:47;;;;;;;;;;;13.30;99.90;;;;;;5107458;27;20193;-78
2023/05/11 00:34:16;;;;;;;;;;;13.30;99.90;;;;;;5113006;27;20010;-78
2023/05/11 00:36:42;;;;;;;;;;;13.30;99.90;;;;;;5111325;27;19934;-78
2023/05/11 00:39:08;;;;;;;;;;;13.40;99.90;;;;;;5109264;27;19967;-78
2023/05/11 00:41:34;;;;;;;;;;;13.30;99.90;;;;;;5112252;27;19938;-78
2023/05/11 00:44:00;;;;;;;;;;;13.40;99.90;;;;;;5109356;27;20378;-78
2023/05/11 00:46:27;;;;;;;;;;;13.20;99.90;;;;;;5111991;27;20474;-78
2023/05/11 00:48:52;;;;;;;;;;;13.40;99.90;;;;;;5111225;27;19924;-78
2023/05/11 00:51:18;;;;;;;;;;;13.30;99.90;;;;;;5107902;27;19962;-78
2023/05/11 00:53:44;;;;;;;;;;;13.60;99.90;;;;;;5110622;27;19927;-78
2023/05/11 00:56:10;;;;;;;;;;;13.30;99.90;;;;;;5103683;27;19924;-78
2023/05/11 00:58:35;;;;;;;;;;;13.20;99.90;;;;;;5112041;28;19935;-77
2023/05/11 01:01:01;;;;;;;;;;;13.30;99.90;;;;;;5105117;28;19928;-77
2023/05/11 01:03:27;;;;;;;;;;;13.30;99.90;;;;;;5110323;28;20448;-78
2023/05/11 01:06:07;;;;;;;;;;;13.30;99.90;;;;;;5110006;28;20387;-77
2023/05/11 01:08:41;;;;;;;;;;;13.30;99.90;;;;;;5111055;28;19991;-77
2023/05/11 01:11:12;;;;;;;;;;;13.30;99.90;;;;;;5110780;28;19931;-78
2023/05/11 01:13:51;;;;;;;;;;;13.30;99.90;;;;;;5109274;28;19932;-78
2023/05/11 01:16:23;;;;;;;;;;;13.30;99.90;;;;;;5108707;28;20563;-77
2023/05/11 01:18:51;;;;;;;;;;;13.30;99.90;;;;;;5106376;28;19928;-78
2023/05/11 01:21:16;;;;;;;;;;;13.30;99.90;;;;;;5112245;27;19935;-78
2023/05/11 01:24:00;;;;;;;;;;;13.30;99.90;;;;;;5113217;27;20686;-78
2023/05/11 01:26:38;;;;;;;;;;;13.30;99.90;;;;;;5115122;28;19981;-77
2023/05/11 01:29:22;;;;;;;;;;;13.30;99.90;;;;;;5108304;28;20403;-78
2023/05/11 01:31:48;;;;;;;;;;;13.10;99.90;;;;;;5112914;28;20597;-78
2023/05/11 01:34:22;;;;;;;;;;;13.30;99.90;;;;;;5109695;28;19928;-78
2023/05/11 01:36:59;;;;;;;;;;;13.30;99.90;;;;;;5109295;28;19972;-78
2023/05/11 01:39:36;;;;;;;;;;;13.20;99.90;;;;;;5110661;28;20290;-77
2023/05/11 01:42:11;;;;;;;;;;;13.30;99.90;;;;;;5106261;28;20024;-77
2023/05/11 01:44:38;;;;;;;;;;;13.20;99.90;;;;;;5111581;28;19935;-78
2023/05/11 01:47:05;;;;;;;;;;;13.30;99.90;;;;;;5111187;28;20009;-77
2023/05/11 01:49:32;;;;;;;;;;;13.50;99.90;;;;;;5093763;28;19928;-77
2023/05/11 01:52:00;;;;;;;;;;;13.20;99.90;;;;;;5107781;28;19932;-78
2023/05/11 01:54:26;;;;;;;;;;;13.30;99.90;;;;;;5107661;28;19927;-77
2023/05/11 01:56:53;;;;;;;;;;;13.10;99.90;;;;;;5113604;27;19935;-77
2023/05/11 01:59:18;;;;;;;;;;;13.10;99.90;;;;;;5114487;28;19923;-77
2023/05/11 02:01:44;;;;;;;;;;;13.10;99.90;;;;;;5102000;28;19934;-77
2023/05/11 02:04:10;;;;;;;;;;;13.10;99.90;;;;;;5109230;28;20468;-78
2023/05/11 02:06:37;;;;;;;;;;;13.20;99.90;;;;;;5108094;27;19932;-78
2023/05/11 02:09:03;;;;;;;;;;;13.10;99.90;;;;;;5114521;27;19931;-77
2023/05/11 02:11:29;;;;;;;;;;;13.10;99.90;;;;;;5116591;27;19934;-77
2023/05/11 02:13:57;;;;;;;;;;;13.10;99.90;;;;;;5112668;27;19928;-77
2023/05/11 02:16:23;;;;;;;;;;;13.30;99.90;;;;;;5117791;27;19938;-77
2023/05/11 02:18:49;;;;;;;;;;;13.30;99.90;;;;;;5110070;27;19934;-77
2023/05/11 02:21:15;;;;;;;;;;;13.40;99.90;;;;;;5112930;27;20619;-77
2023/05/11 02:23:42;;;;;;;;;;;13.30;99.90;;;;;;5112987;27;19973;-77
2023/05/11 02:26:08;;;;;;;;;;;13.20;99.90;;;;;;5111359;27;20536;-77
2023/05/11 02:28:33;;;;;;;;;;;13.10;99.90;;;;;;5115301;27;19928;-77
2023/05/11 02:31:00;;;;;;;;;;;13.00;99.90;;;;;;5114120;27;19934;-77
2023/05/11 02:33:29;;;;;;;;;;;13.10;99.90;;;;;;5114972;27;19952;-77
2023/05/11 02:35:55;;;;;;;;;;;13.00;99.90;;;;;;5116865;27;19931;-78
2023/05/11 02:38:24;;;;;;;;;;;13.00;99.90;;;;;;5108866;27;19928;-77
2023/05/11 02:40:53;;;;;;;;;;;13.00;99.90;;;;;;5116795;27;20006;-77
2023/05/11 02:43:22;;;;;;;;;;;12.90;99.90;;;;;;5111123;27;19928;-77
2023/05/11 02:45:57;;;;;;;;;;;12.80;99.90;;;;;;5112778;27;20015;-77
2023/05/11 02:48:25;;;;;;;;;;;12.80;99.90;;;;;;5116170;27;19973;-78
2023/05/11 02:50:53;;;;;;;;;;;12.70;99.90;;;;;;5117113;27;19934;-77
2023/05/11 02:53:19;;;;;;;;;;;12.60;99.90;;;;;;5117701;27;19928;-77
2023/05/11 02:55:45;;;;;;;;;;;12.70;99.90;;;;;;5115541;27;19950;-77
2023/05/11 02:58:11;;;;;;;;;;;12.70;99.90;;;;;;5114330;27;19932;-77
2023/05/11 03:00:37;;;;;;;;;;;12.70;99.90;;;;;;5114327;27;19938;-77
2023/05/11 03:03:03;;;;;;;;;;;12.80;99.90;;;;;;5116727;27;20724;-77
2023/05/11 03:05:29;;;;;;;;;;;12.90;99.90;;;;;;5115474;27;19927;-77
2023/05/11 03:07:56;;;;;;;;;;;12.70;99.90;;;;;;5116815;27;19976;-77
2023/05/11 03:10:23;;;;;;;;;;;12.80;99.90;;;;;;5116433;27;20273;-77
2023/05/11 03:12:49;;;;;;;;;;;12.70;99.90;;;;;;5113073;27;19931;-77
2023/05/11 03:15:15;;;;;;;;;;;12.80;99.90;;;;;;5113107;27;19938;-77
2023/05/11 03:17:41;;;;;;;;;;;12.70;99.90;;;;;;5116506;27;19947;-77
2023/05/11 03:20:07;;;;;;;;;;;12.70;99.90;;;;;;5114842;27;20388;-77
2023/05/11 03:22:34;;;;;;;;;;;12.90;99.90;;;;;;5114155;27;19931;-77
2023/05/11 03:25:01;;;;;;;;;;;12.80;99.90;;;;;;5117705;27;19927;-78
2023/05/11 03:27:27;;;;;;;;;;;12.90;99.90;;;;;;5117538;27;20047;-77
2023/05/11 03:29:54;;;;;;;;;;;12.70;99.90;;;;;;5116419;27;20372;-77
2023/05/11 03:32:20;;;;;;;;;;;12.70;99.90;;;;;;5117197;27;19927;-77
2023/05/11 03:34:45;;;;;;;;;;;12.80;99.90;;;;;;5117047;27;20064;-78
2023/05/11 03:37:12;;;;;;;;;;;12.70;99.90;;;;;;5100107;27;19936;-77
2023/05/11 03:39:38;;;;;;;;;;;12.80;99.90;;;;;;5113878;27;20003;-76
2023/05/11 03:42:04;;;;;;;;;;;12.80;99.90;;;;;;5114945;27;19923;-77
2023/05/11 03:44:31;;;;;;;;;;;12.60;99.90;;;;;;5110948;27;19935;-77
2023/05/11 03:46:58;;;;;;;;;;;12.70;99.90;;;;;;5117582;27;20330;-77
2023/05/11 03:49:24;;;;;;;;;;;12.60;99.90;;;;;;5113326;27;20467;-77
2023/05/11 03:51:50;;;;;;;;;;;12.40;99.90;;;;;;5116521;27;20035;-77
2023/05/11 03:54:16;;;;;;;;;;;12.60;99.90;;;;;;5114363;27;20026;-77
2023/05/11 03:56:41;;;;;;;;;;;12.60;99.90;;;;;;5114915;27;19934;-77
2023/05/11 03:59:08;;;;;;;;;;;12.70;99.90;;;;;;5116815;27;20346;-77
2023/05/11 04:01:33;;;;;;;;;;;12.60;99.90;;;;;;5110494;27;19934;-77
2023/05/11 04:03:59;;;;;;;;;;;12.80;99.90;;;;;;5107699;27;19927;-77
2023/05/11 04:06:25;;;;;;;;;;;12.80;99.90;;;;;;5111598;27;19931;-78
2023/05/11 04:08:50;;;;;;;;;;;12.60;99.90;;;;;;5114281;27;19970;-77
2023/05/11 04:11:16;;;;;;;;;;;12.70;99.90;;;;;;5110032;27;19928;-77
2023/05/11 04:13:41;;;;;;;;;;;12.70;99.90;;;;;;5111052;27;19928;-77
2023/05/11 04:16:07;;;;;;;;;;;12.70;99.90;;;;;;5110715;27;19931;-77
2023/05/11 04:18:33;;;;;;;;;;;12.90;99.90;;;;;;5113940;27;19927;-77
2023/05/11 04:20:58;;;;;;;;;;;12.70;99.90;;;;;;5112522;27;19959;-77
2023/05/11 04:23:24;;;;;;;;;;;12.70;99.90;;;;;;5109299;27;20300;-78
2023/05/11 04:25:53;;;;;;;;;;;12.80;99.90;;;;;;5111583;27;19962;-78
2023/05/11 04:28:19;;;;;;;;;;;12.70;99.90;;;;;;5111605;27;19927;-77
2023/05/11 04:30:45;;;;;;;;;;;12.70;99.90;;;;;;5113210;27;20035;-77
2023/05/11 04:33:13;;;;;;;;;;;12.90;99.90;;;;;;5112430;27;20436;-78
2023/05/11 04:35:38;;;;;;;;;;;12.60;99.90;;;;;;5114499;27;19953;-77
2023/05/11 04:38:05;;;;;;;;;;;12.80;99.90;;;;;;5111819;27;20443;-77
2023/05/11 04:40:30;;;;;;;;;;;12.90;99.90;;;;;;5110300;27;19980;-78
2023/05/11 04:42:56;;;;;;;;;;;12.90;99.90;;;;;;5107563;27;20067;-77
2023/05/11 04:45:21;;;;;;;;;;;12.80;99.90;;;;;;5110934;27;20527;-77
2023/05/11 04:47:47;;;;;;;;;;;12.80;99.90;;;;;;5093791;27;20716;-77
2023/05/11 04:50:12;;;;;;;;;;;12.90;99.90;;;;;;5111068;27;20634;-77
2023/05/11 04:52:38;;;;;;;;;;;13.00;99.90;;;;;;5108085;27;19934;-77
2023/05/11 04:55:04;;;;;;;;;;;13.10;99.90;;;;;;5111753;27;19941;-77
2023/05/11 04:57:29;;;;;;;;;;;12.80;99.90;;;;;;5105126;27;19923;-77
2023/05/11 04:59:55;;;;;;;;;;;13.10;99.90;;;;;;5129008;27;20457;-78
2023/05/11 05:02:20;;;;;;;;;;;13.00;99.90;;;;;;5090881;27;19931;-77
2023/05/11 05:04:46;;;;;;;;;;;13.10;99.90;;;;;;5091753;28;19931;-77
2023/05/11 05:07:11;;;;;;;;;;;12.80;99.90;;;;;;5093144;28;19932;-77
2023/05/11 05:09:37;;;;;;;;;;;13.00;99.90;;;;;;5097424;28;19992;-78
2023/05/11 05:12:03;;;;;;;;;;;13.00;99.90;;;;;;5097780;28;19931;-78
2023/05/11 05:14:28;;;;;;;;;;;12.90;99.90;;;;;;5101059;28;19927;-77
2023/05/11 05:16:54;;;;;;;;;;;12.80;99.90;;;;;;5090674;28;20339;-77
2023/05/11 05:19:19;;;;;;;;;;;12.80;99.90;;;;;;5112626;28;19934;-77
2023/05/11 05:21:47;;;;;;;;;;;12.90;99.90;;;;;;5111350;28;20453;-77
2023/05/11 05:24:12;;;;;;;;;;;13.00;99.90;;;;;;5110578;28;20022;-77
2023/05/11 05:26:38;;;;;;;;;;;12.90;99.90;;;;;;5112840;28;20370;-77
2023/05/11 05:29:04;;;;;;;;;;;13.00;99.90;;;;;;5112415;28;19927;-77
2023/05/11 05:31:30;;;;;;;;;;;13.10;99.90;;;;;;5111476;28;19979;-77
2023/05/11 05:33:55;;;;;;;;;;;13.00;99.90;;;;;;5110626;28;20023;-77
2023/05/11 05:36:21;;;;;;;;;;;13.10;99.90;;;;;;5110295;28;20019;-77
2023/05/11 05:38:46;;;;;;;;;;;13.10;99.90;;;;;;5110949;28;20312;-77
2023/05/11 05:41:12;;;;;;;;;;;13.10;99.90;;;;;;5085866;27;19965;-78
2023/05/11 05:43:37;;;;;;;;;;;13.10;99.90;;;;;;5102336;27;19977;-77
2023/05/11 05:46:03;;;;;;;;;;;13.10;99.90;;;;;;5085740;27;20025;-77
2023/05/11 05:48:29;;;;;;;;;;;13.10;99.90;;;;;;5101756;27;20014;-78
2023/05/11 05:50:54;;;;;;;;;;;13.20;99.90;;;;;;5105149;27;20690;-78
2023/05/11 05:53:20;;;;;;;;;;;13.40;99.90;;;;;;5102536;27;19963;-78
2023/05/11 05:55:45;;;;;;;;;;;13.20;99.90;;;;;;5104834;27;19980;-78
2023/05/11 05:58:11;;;;;;;;;;;13.10;99.90;;;;;;5099948;27;19938;-78
2023/05/11 06:00:36;;;;;;;;;;;13.10;99.90;;;;;;5104230;27;20047;-77
2023/05/11 06:03:02;;;;;;;;;;;13.10;99.90;;;;;;5104585;27;20361;-78
2023/05/11 06:05:28;;;;;;;;;;;13.20;99.90;;;;;;5115608;27;19931;-78
2023/05/11 06:07:53;;;;;;;;;;;13.20;99.90;;;;;;5115921;27;19927;-78
2023/05/11 06:10:19;;;;;;;;;;;13.10;99.90;;;;;;5112581;27;20483;-77
2023/05/11 06:12:46;;;;;;;;;;;13.10;99.90;;;;;;5114254;27;21436;-77
2023/05/11 06:15:12;;;;;;;;;;;13.20;99.90;;;;;;5110585;27;20037;-78
2023/05/11 06:17:37;;;;;;;;;;;13.30;99.90;;;;;;5116892;27;19932;-78
2023/05/11 06:20:04;;;;;;;;;;;13.40;99.90;;;;;;5118799;27;19931;-78
2023/05/11 06:22:30;;;;;;;;;;;13.30;99.90;;;;;;5118283;27;19937;-77
2023/05/11 06:24:56;;;;;;;;;;;13.40;99.90;;;;;;5118793;27;19927;-78
2023/05/11 06:27:22;;;;;;;;;;;13.30;99.90;;;;;;5120611;27;20316;-77
2023/05/11 06:29:47;;;;;;;;;;;13.30;99.90;;;;;;5119165;27;19935;-78
2023/05/11 06:32:13;;;;;;;;;;;13.30;99.90;;;;;;5119536;27;19934;-78
2023/05/11 06:34:39;;;;;;;;;;;13.30;99.90;;;;;;5117581;27;19976;-77
2023/05/11 06:37:04;;;;;;;;;;;13.50;99.90;;;;;;5117832;27;19934;-78
2023/05/11 06:39:30;;;;;;;;;;;13.40;99.90;;;;;;5119729;27;19934;-77
2023/05/11 06:41:55;;;;;;;;;;;13.40;99.90;;;;;;5122217;27;20361;-77
2023/05/11 06:44:21;;;;;;;;;;;13.60;99.90;;;;;;5119103;27;19955;-77
2023/05/11 06:46:46;;;;;;;;;;;13.40;99.90;;;;;;5119838;27;19928;-77
2023/05/11 06:49:12;;;;;;;;;;;13.40;99.90;;;;;;5120320;27;20272;-77
2023/05/11 06:51:38;;;;;;;;;;;13.60;99.90;;;;;;5116033;27;19989;-77
2023/05/11 06:54:03;;;;;;;;;;;13.60;99.90;;;;;;5115111;27;19927;-77
2023/05/11 06:56:31;;;;;;;;;;;13.50;99.90;;;;;;5117430;27;19973;-77
2023/05/11 06:58:57;;;;;;;;;;;13.70;99.90;;;;;;5099704;27;19927;-77
2023/05/11 07:01:22;;;;;;;;;;;13.70;99.90;;;;;;5117455;27;19927;-77
2023/05/11 07:03:48;;;;;;;;;;;13.80;99.90;;;;;;5117949;27;20042;-77
2023/05/11 07:06:14;;;;;;;;;;;13.90;99.90;;;;;;5115752;27;20005;-77
2023/05/11 07:08:39;;;;;;;;;;;13.80;99.90;;;;;;5116050;27;19934;-77
2023/05/11 07:11:05;;;;;;;;;;;13.90;99.90;;;;;;5101096;27;19985;-77
2023/05/11 07:13:31;;;;;;;;;;;13.80;99.90;;;;;;5116604;27;19966;-77
2023/05/11 07:15:56;;;;;;;;;;;13.60;99.90;;;;;;5119217;27;19931;-80
2023/05/11 07:18:22;;;;;;;;;;;13.70;99.90;;;;;;5119252;27;19935;-81
2023/05/11 07:20:48;;;;;;;;;;;13.80;99.90;;;;;;5118964;27;19932;-80
2023/05/11 07:23:15;;;;;;;;;;;13.80;99.90;;;;;;5119600;27;20551;-79
2023/05/11 07:25:41;;;;;;;;;;;13.80;99.90;;;;;;5116207;27;19927;-80
2023/05/11 07:28:07;;;;;;;;;;;13.80;99.90;;;;;;5117620;27;20040;-80
2023/05/11 07:30:32;;;;;;;;;;;13.70;99.90;;;;;;5118003;27;19934;-80
2023/05/11 07:32:58;;;;;;;;;;;13.70;99.90;;;;;;5118501;27;19929;-80
2023/05/11 07:35:23;;;;;;;;;;;13.60;99.90;;;;;;5120413;27;20095;-80
2023/05/11 07:37:49;;;;;;;;;;;13.60;99.90;;;;;;5115186;27;19963;-80
2023/05/11 07:40:14;;;;;;;;;;;13.60;99.90;;;;;;5100294;27;19935;-81
2023/05/11 07:42:40;;;;;;;;;;;13.50;99.90;;;;;;5118501;27;19928;-80
2023/05/11 07:45:06;;;;;;;;;;;13.70;99.90;;;;;;5113697;27;20566;-80
2023/05/11 07:47:31;;;;;;;;;;;13.80;99.90;;;;;;5114023;27;19977;-80
2023/05/11 07:49:57;;;;;;;;;;;13.80;99.90;;;;;;5119291;27;20068;-80
2023/05/11 07:52:22;;;;;;;;;;;14.00;99.90;;;;;;5118102;27;19934;-80
2023/05/11 07:54:48;;;;;;;;;;;13.90;99.90;;;;;;5114655;27;19927;-81
2023/05/11 07:57:13;;;;;;;;;;;14.00;99.90;;;;;;5116440;27;19927;-81
2023/05/11 07:59:39;;;;;;;;;;;13.80;99.90;;;;;;5117156;27;19927;-81
2023/05/11 08:02:07;;;;;;;;;;;13.70;99.90;;;;;;5116005;27;19927;-80
2023/05/11 08:04:32;;;;;;;;;;;14.00;99.90;;;;;;5104692;27;19974;-80
2023/05/11 08:06:58;;;;;;;;;;;13.90;99.90;;;;;;5107251;27;19970;-80
2023/05/11 08:09:23;;;;;;;;;;;13.70;99.90;;;;;;5106339;27;19927;-80
2023/05/11 08:11:49;;;;;;;;;;;13.70;99.90;;;;;;5117240;27;19923;-80
2023/05/11 08:14:15;;;;;;;;;;;13.70;99.90;;;;;;5118127;27;19939;-81
2023/05/11 08:16:40;;;;;;;;;;;13.80;99.90;;;;;;5111806;27;19963;-80
2023/05/11 08:19:06;;;;;;;;;;;13.80;99.90;;;;;;5117563;27;20341;-80
2023/05/11 08:21:31;;;;;;;;;;;13.70;99.90;;;;;;5116019;27;19931;-80
2023/05/11 08:23:57;;;;;;;;;;;13.80;99.90;;;;;;5118441;27;20021;-80
2023/05/11 08:26:23;;;;;;;;;;;14.00;99.90;;;;;;5115986;27;19927;-81
2023/05/11 08:28:50;;;;;;;;;;;13.90;99.90;;;;;;5116738;27;19935;-80
2023/05/11 08:31:17;;;;;;;;;;;14.20;99.90;;;;;;5117305;27;19966;-80
2023/05/11 08:33:43;;;;;;;;;;;14.10;99.90;;;;;;5115548;27;19938;-80
2023/05/11 08:36:09;;;;;;;;;;;14.10;99.90;;;;;;5112054;27;19950;-80
2023/05/11 08:38:35;;;;;;;;;;;14.40;99.90;;;;;;5098637;28;20388;-81
2023/05/11 08:41:01;;;;;;;;;;;14.50;99.90;;;;;;5114168;27;19970;-81
2023/05/11 08:43:27;;;;;;;;;;;14.20;99.90;;;;;;5116871;27;19970;-81
2023/05/11 08:45:55;;;;;;;;;;;14.60;99.90;;;;;;5116572;27;19927;-80
2023/05/11 08:48:21;;;;;;;;;;;14.60;99.90;;;;;;5100980;27;19957;-80
2023/05/11 08:50:47;;;;;;;;;;;14.70;99.90;;;;;;5061169;27;19931;-81
2023/05/11 08:53:16;;;;;;;;;;;14.90;99.90;;;;;;5109161;27;19934;-81
2023/05/11 08:55:42;;;;;;;;;;;14.90;99.90;;;;;;5104793;27;19934;-81
2023/05/11 08:58:07;;;;;;;;;;;14.70;99.90;;;;;;5112684;27;20411;-81
2023/05/11 09:00:33;;;;;;;;;;;14.80;99.90;;;;;;5107871;27;19932;-80
2023/05/11 09:02:59;;;;;;;;;;;14.70;99.90;;;;;;5110695;28;19935;-80
2023/05/11 09:05:25;;;;;;;;;;;14.60;99.90;;;;;;5116994;27;19927;-80
2023/05/11 09:07:52;;;;;;;;;;;14.80;99.90;;;;;;5108773;28;19980;-80
2023/05/11 09:10:18;;;;;;;;;;;14.70;99.90;;;;;;5111146;28;20256;-80
2023/05/11 09:12:43;;;;;;;;;;;14.80;99.90;;;;;;5111391;28;19928;-80
2023/05/11 09:15:09;;;;;;;;;;;14.90;99.90;;;;;;5114852;28;20345;-80
2023/05/11 09:17:35;;;;;;;;;;;15.00;99.90;;;;;;5116972;27;20295;-81
2023/05/11 09:20:04;;;;;;;;;;;15.10;99.90;;;;;;5117761;27;19953;-80
2023/05/11 09:22:33;;;;;;;;;;;15.00;99.90;;;;;;5112650;27;20306;-80
2023/05/11 09:25:00;;;;;;;;;;;15.20;99.90;;;;;;5115420;27;19924;-80
2023/05/11 09:27:26;;;;;;;;;;;15.40;99.90;;;;;;5114360;27;19935;-80
2023/05/11 09:29:53;;;;;;;;;;;15.40;99.90;;;;;;5113641;27;19924;-80
2023/05/11 09:32:18;;;;;;;;;;;15.70;99.90;;;;;;5115218;27;19934;-80
2023/05/11 09:34:44;;;;;;;;;;;15.50;99.90;;;;;;5113597;27;19927;-80
2023/05/11 09:37:14;;;;;;;;;;;15.60;99.90;;;;;;5116883;27;19962;-80
2023/05/11 09:39:40;;;;;;;;;;;15.90;99.90;;;;;;5113607;27;19928;-80
2023/05/11 09:42:13;;;;;;;;;;;16.00;99.90;;;;;;5119213;27;19958;-80
2023/05/11 09:44:40;;;;;;;;;;;16.30;99.90;;;;;;5115716;27;20041;-80
2023/05/11 09:47:10;;;;;;;;;;;16.10;99.90;;;;;;5111193;27;19977;-80
2023/05/11 09:49:36;;;;;;;;;;;16.40;99.90;;;;;;5108260;27;20527;-79
2023/05/11 09:52:01;;;;;;;;;;;15.90;99.90;;;;;;5116677;27;19923;-80
2023/05/11 09:54:27;;;;;;;;;;;16.40;99.90;;;;;;5101854;27;19927;-79
2023/05/11 09:56:57;;;;;;;;;;;16.70;99.90;;;;;;5117291;27;19934;-80
2023/05/11 09:59:39;;;;;;;;;;;16.70;99.90;;;;;;5122014;27;19935;-79
2023/05/11 10:02:15;;;;;;;;;;;16.90;99.90;;;;;;5115222;27;20018;-79
2023/05/11 10:04:41;;;;;;;;;;;16.90;99.90;;;;;;5117799;27;20053;-79
2023/05/11 10:07:06;;;;;;;;;;;17.20;99.90;;;;;;5117359;27;19975;-79
2023/05/11 10:09:32;;;;;;;;;;;17.10;99.90;;;;;;5107768;27;19927;-80
2023/05/11 10:11:58;;;;;;;;;;;17.10;99.90;;;;;;5113629;27;20022;-80
2023/05/11 10:14:23;;;;;;;;;;;16.80;99.90;;;;;;5116061;27;19927;-79
2023/05/11 10:16:49;;;;;;;;;;;16.70;99.90;;;;;;5113009;27;19923;-79
2023/05/11 10:19:16;;;;;;;;;;;17.20;99.90;;;;;;5085956;27;19927;-79
2023/05/11 10:21:41;;;;;;;;;;;16.90;99.90;;;;;;5095688;27;19931;-79
2023/05/11 10:24:07;;;;;;;;;;;16.90;99.90;;;;;;5077587;27;19946;-79
2023/05/11 10:26:33;;;;;;;;;;;16.70;99.90;;;;;;5097261;27;19927;-79
2023/05/11 10:28:59;;;;;;;;;;;16.60;99.90;;;;;;5119377;27;20430;-79
2023/05/11 10:31:25;;;;;;;;;;;17.00;99.90;;;;;;5104825;27;19927;-79
2023/05/11 10:33:51;;;;;;;;;;;17.10;99.90;;;;;;5101359;27;20338;-79
2023/05/11 10:36:21;;;;;;;;;;;17.20;99.90;;;;;;5102904;27;20005;-79
2023/05/11 10:38:47;;;;;;;;;;;17.40;99.90;;;;;;5095081;27;20774;-79
2023/05/11 10:41:23;;;;;;;;;;;17.10;99.90;;;;;;5103143;27;19938;-78
2023/05/11 10:43:52;;;;;;;;;;;17.30;99.90;;;;;;5102976;27;19927;-78
2023/05/11 10:46:24;;;;;;;;;;;17.30;99.90;;;;;;5099678;27;20377;-78
2023/05/11 10:48:50;;;;;;;;;;;17.50;99.90;;;;;;5094670;27;19934;-79
2023/05/11 10:51:16;;;;;;;;;;;17.50;99.90;;;;;;5084913;27;19927;-78
2023/05/11 10:53:47;;;;;;;;;;;17.30;99.90;;;;;;5081034;27;19931;-78
2023/05/11 10:56:35;;;;;;;;;;;17.40;99.90;;;;;;5095443;27;19927;-79
2023/05/11 10:59:12;;;;;;;;;;;17.00;99.90;;;;;;5119201;27;19931;-78
2023/05/11 11:01:41;;;;;;;;;;;16.90;99.90;;;;;;5099967;27;19981;-79
2023/05/11 11:04:08;;;;;;;;;;;16.80;99.90;;;;;;5100333;27;19938;-78
2023/05/11 11:06:35;;;;;;;;;;;16.70;99.90;;;;;;5100518;27;19934;-78
2023/05/11 11:09:03;;;;;;;;;;;16.80;99.90;;;;;;5100615;27;19932;-78
2023/05/11 11:11:37;;;;;;;;;;;17.10;99.90;;;;;;5098478;27;19931;-78
2023/05/11 11:14:04;;;;;;;;;;;16.80;99.90;;;;;;5100289;27;19981;-78
2023/05/11 11:16:31;;;;;;;;;;;16.80;99.90;;;;;;5100615;27;19934;-78
2023/05/11 11:19:15;;;;;;;;;;;16.80;99.90;;;;;;5101278;27;20560;-78
2023/05/11 11:21:41;;;;;;;;;;;16.70;99.90;;;;;;5119882;27;19927;-78
2023/05/11 11:24:07;;;;;;;;;;;16.90;99.90;;;;;;5101752;27;19927;-78
2023/05/11 11:26:46;;;;;;;;;;;16.90;99.90;;;;;;5099594;27;20022;-78
2023/05/11 11:29:11;;;;;;;;;;;17.00;99.90;;;;;;5098180;27;19969;-78
2023/05/11 11:31:37;;;;;;;;;;;16.70;99.90;;;;;;5099138;27;20332;-78
2023/05/11 11:34:21;;;;;;;;;;;16.60;99.90;;;;;;5101092;27;20269;-78
2023/05/11 11:36:53;;;;;;;;;;;16.80;99.90;;;;;;5095267;27;20415;-78
2023/05/11 11:39:19;;;;;;;;;;;16.50;99.90;;;;;;5100129;27;20626;-78
2023/05/11 11:41:45;;;;;;;;;;;16.30;99.90;;;;;;5099862;27;20009;-78
2023/05/11 11:44:19;;;;;;;;;;;16.50;99.90;;;;;;5101315;27;20722;-78
2023/05/11 11:46:44;;;;;;;;;;;16.40;99.90;;;;;;5099715;27;19927;-78
2023/05/11 11:49:10;;;;;;;;;;;16.50;99.90;;;;;;5100826;27;19960;-78
2023/05/11 11:51:39;;;;;;;;;;;16.60;99.90;;;;;;5102340;27;19976;-78
2023/05/11 11:54:05;;;;;;;;;;;16.80;99.90;;;;;;5095770;27;19927;-78
2023/05/11 11:56:31;;;;;;;;;;;16.70;99.90;;;;;;5095301;27;20073;-77
2023/05/11 11:59:01;;;;;;;;;;;16.60;99.90;;;;;;5102524;27;19928;-78
2023/05/11 12:01:28;;;;;;;;;;;16.50;99.90;;;;;;5103397;27;19932;-78
2023/05/11 12:04:03;;;;;;;;;;;16.70;99.90;;;;;;5100216;27;19943;-78
2023/05/11 12:06:35;;;;;;;;;;;17.10;99.90;;;;;;5099517;27;19934;-78
2023/05/11 12:09:01;;;;;;;;;;;17.00;99.90;;;;;;5101323;27;19923;-78
2023/05/11 12:11:28;;;;;;;;;;;16.70;99.90;;;;;;5097230;27;19923;-78
2023/05/11 12:13:53;;;;;;;;;;;16.80;99.90;;;;;;5100216;27;19967;-78
2023/05/11 12:16:19;;;;;;;;;;;16.90;99.90;;;;;;5096295;27;19966;-78
2023/05/11 12:18:53;;;;;;;;;;;16.90;99.90;;;;;;5099601;27;19982;-78
2023/05/11 12:21:19;;;;;;;;;;;16.90;99.90;;;;;;5099943;27;19962;-78
2023/05/11 12:24:04;;;;;;;;;;;16.80;99.90;;;;;;5114835;27;19931;-78
2023/05/11 12:26:30;;;;;;;;;;;16.90;99.90;;;;;;5096615;27;21031;-78
2023/05/11 12:29:06;;;;;;;;;;;16.90;99.90;;;;;;5099971;27;20026;-78
2023/05/11 12:31:35;;;;;;;;;;;16.60;99.90;;;;;;5079994;27;19923;-78
2023/05/11 12:34:00;;;;;;;;;;;16.80;99.90;;;;;;5096991;27;20003;-78
2023/05/11 12:36:26;;;;;;;;;;;16.90;99.90;;;;;;5099246;27;20014;-78
2023/05/11 12:38:52;;;;;;;;;;;16.70;99.90;;;;;;5099175;27;19962;-78
2023/05/11 12:41:18;;;;;;;;;;;16.70;99.90;;;;;;5099015;27;19935;-78
2023/05/11 12:43:43;;;;;;;;;;;16.60;99.90;;;;;;5097446;27;19927;-78
2023/05/11 12:46:09;;;;;;;;;;;16.50;99.90;;;;;;5098054;27;19927;-78
2023/05/11 12:48:35;;;;;;;;;;;16.70;99.90;;;;;;5099868;27;20342;-78
2023/05/11 12:51:00;;;;;;;;;;;16.60;99.90;;;;;;5080122;28;19927;-78
2023/05/11 12:53:26;;;;;;;;;;;16.80;99.90;;;;;;5099701;27;19927;-78
2023/05/11 12:55:58;;;;;;;;;;;16.70;99.90;;;;;;5082232;28;19927;-78
2023/05/11 12:58:24;;;;;;;;;;;16.50;99.90;;;;;;5100436;27;20111;-78
2023/05/11 13:00:51;;;;;;;;;;;16.70;99.90;;;;;;5099383;27;19970;-78
2023/05/11 13:03:21;;;;;;;;;;;16.60;99.90;;;;;;5097996;28;20026;-78
2023/05/11 13:05:47;;;;;;;;;;;16.80;99.90;;;;;;5097086;28;19934;-78
2023/05/11 13:08:13;;;;;;;;;;;16.60;99.90;;;;;;5083647;28;19927;-78
2023/05/11 13:10:39;;;;;;;;;;;16.70;99.90;;;;;;5078667;28;19927;-78
2023/05/11 13:13:04;;;;;;;;;;;16.80;99.90;;;;;;5081193;28;19934;-79
2023/05/11 13:15:30;;;;;;;;;;;16.50;99.90;;;;;;5080744;28;20308;-78
2023/05/11 13:17:57;;;;;;;;;;;16.60;99.90;;;;;;5095638;28;19956;-79
2023/05/11 13:20:28;;;;;;;;;;;16.70;99.90;;;;;;5098407;28;19923;-79
2023/05/11 13:23:07;;;;;;;;;;;16.50;99.90;;;;;;5095878;28;19931;-79
2023/05/11 13:25:34;;;;;;;;;;;16.80;99.90;;;;;;5116935;27;20388;-79
2023/05/11 13:28:00;;;;;;;;;;;16.70;99.90;;;;;;5098341;28;19927;-79
2023/05/11 13:30:26;;;;;;;;;;;16.80;99.90;;;;;;5118148;28;19935;-78
2023/05/11 13:32:52;;;;;;;;;;;16.80;99.90;;;;;;5095171;27;19924;-78
2023/05/11 13:35:17;;;;;;;;;;;16.80;99.90;;;;;;5098108;28;20315;-78
2023/05/11 13:37:43;;;;;;;;;;;16.80;99.90;;;;;;5094910;28;20435;-78
2023/05/11 13:40:09;;;;;;;;;;;17.10;99.90;;;;;;5097990;28;19928;-78
2023/05/11 13:42:35;;;;;;;;;;;17.00;99.90;;;;;;5097048;28;19924;-78
2023/05/11 13:45:00;;;;;;;;;;;17.10;99.90;;;;;;5097551;28;19972;-78
2023/05/11 13:47:26;;;;;;;;;;;16.90;99.90;;;;;;5086959;28;19981;-78
2023/05/11 13:49:53;;;;;;;;;;;17.00;99.90;;;;;;5094236;28;19972;-77
2023/05/11 13:52:19;;;;;;;;;;;17.30;99.90;;;;;;5093661;28;19931;-78
2023/05/11 13:54:45;;;;;;;;;;;17.40;99.90;;;;;;5090999;28;19932;-78
2023/05/11 13:57:11;;;;;;;;;;;17.50;99.90;;;;;;5092474;28;19931;-78
2023/05/11 13:59:37;;;;;;;;;;;17.30;99.90;;;;;;5092914;28;19927;-78
2023/05/11 14:02:02;;;;;;;;;;;17.70;99.90;;;;;;5095636;28;20017;-78
2023/05/11 14:04:28;;;;;;;;;;;17.70;99.90;;;;;;5097010;27;19935;-78
2023/05/11 14:06:54;;;;;;;;;;;17.70;99.90;;;;;;5097592;27;19931;-78
2023/05/11 14:09:19;;;;;;;;;;;17.50;99.90;;;;;;5107581;27;20379;-78
2023/05/11 14:11:45;;;;;;;;;;;17.50;99.90;;;;;;5110076;27;20604;-78
2023/05/11 14:14:10;;;;;;;;;;;17.50;99.90;;;;;;5098108;27;20456;-78